Nearby METAR Reports

 

NZCH - Christchurch Int, New Zealand
Distance from station: W 10km
Updated: 04 Mar 2024 02:00
Clear
Clear
 Wind from N
Wind: N 9 km/h
Temperature: 15°C
Dew Point: 3°C
Humidity: 45%
Barometer: 995 hPa
Clouds: Clear
Visibility: 10 km
2024/03/03 13:00 NZCH 031300Z AUTO 01005KT 330V060 9999 NCD 15/03 Q0995